Accueil
METAR-TAF:

METAR-TAF

Aéroports :

Aéroport international de Bâle-Mulhouse-Fribourg

Bâle-Mulhouse, France

latitude: 47-36N, longitude: 007-31E, altitude: 270 m

Observation

Le bulletin a été fait il y a 21 minutes, à 22:00 UTC
Vent 3 kt de nord-est, variant entre nord/nord-est et est/sud-est
Température 0°C
Humidité 86%
Pression 1008 hPa
Visibilité: 5000 m
brume

METAR: LFSB 202200Z 05003KT 020V110 5000 BR NSC M00/M02 Q1008 NOSIG

Heure: 23:21 (22:21 UTC)

Prévision

Le bulletin a été fait il y a 5 heures et 21 minutes, à 17:00 UTC
Prévision valable du 20 à 18 UTC au 21 à 18 UTC
Vent 5 kt de est
Visibilité 10 km ou plus
pas de nuages en-dessous de 1500 mètres et pas de cumulonimbus.
Probabilité 30% :
Temporairement
du 20 à 18 UTC au 21 à 10 UTC
Vent 2 kt de direction variable
Visibilité: 2000 m
brume

TAF: LFSB 201700Z 2018/2118 09005KT CAVOK PROB30 TEMPO 2018/2110 VRB02KT 2000 BR

Observations et prévisions météorologiques de plus de 4000 aéroports (messages METAR et TAF).

Les stations disponibles sont représentées par des disques jaunes et rouges sur la carte.

Passer la souris dessus pour voir le nom de la station.

Cliquer dessus pour voir les observations et prévisions météorologiques.

Pour changer de carte: cliquez sur les boutons verts avec une croix noire pour zoomer, sur le bouton vert avec un tiret pour effectuer un zoom arrière, ou sur les flèches vertes pour les cartes adjacentes.


METAR-TAF: